Historyczne dane pomiarowe

Dodano dane terminowe – wersja testowa.

Dane z okresu 1951-2019

Wersja bazy: 1.34 [2019-03-16, lista zmian], aktualizacja planowana na 2019-04-15

Dane meteo z obszaru Polski uzyskane na podstawie danych udostępnionych przez Instytut Meteorologii i Gospodarki Wodnej – Państwowy Instytut Badawczy.

 

Wybierz Datę:    

       

TemperaturaWilgotnośćWiatrCiśnienieOpadyŚniegCzas trwania zjawisk
 Stacja t tx tn tng RH VA  wxwx mslp ppp RRR   cm mm wxwxwxwxwxwxwx
1983-08-14 13.5 18.2 10.2 8.5 77.0- 4.7 4.0---- 0.0------------
1983-08-13 14.8 19.8 12.6 10.9 89.8- 7.7 5.0---- 1.7------------
1983-08-12 18.6 24.6 15.8 14.9 90.8- 6.0 3.3---- 0.1------------
1983-08-11 18.8 21.6 16.5 15.3 89.8- 8.0 4.7---- 2.0------------
1983-08-10 18.8 24.9 14.3 12.4 85.0- 6.7 3.0---- 2.6------------
1983-08-09 19.7 25.4 14.1 15.7 81.8- 1.3 3.7---- 0.3------------
1983-08-08 19.2 26.5 13.5 12.0 81.8- 3.3 3.0---- 6.3------------
1983-08-07 19.6 26.0 15.3 13.5 83.5- 5.3 2.0---- 12.7------------
1983-08-06 15.2 19.9 10.9 9.3 87.5- 5.7 0.7---- 3.8------------
1983-08-05 14.2 18.1 11.7 11.6 86.0- 6.3 1.7---- 0.0------------
1983-08-04 16.3 23.5 13.3 13.4 90.8- 8.0 3.0---- 19.6------------
1983-08-03 21.5 28.8 13.8 12.0 76.0- 1.7 2.7---- 0.0------------
1983-08-02 19.5 26.6 11.7 9.0 72.3- 0.3 2.7---- 0.0------------
1983-08-01 18.6 24.6 10.1 7.8 70.8- 0.0 2.0---- 0.0------------
1983-07-31 16.8 22.0 12.1 9.7 71.8- 2.3 3.0---- 0.0------------
1983-07-30 15.6 19.7 10.8 9.2 79.5- 8.0 4.7---- 0.0------------
1983-07-29 18.3 22.7 14.1 12.5 79.3- 4.7 3.3---- 0.0------------
1983-07-28 20.3 25.1 16.5 14.8 83.0- 5.7 3.7---- 0.0------------
1983-07-27 21.9 27.3 14.7 12.4 80.8- 1.3 3.7---- 2.3------------
1983-07-26 16.8 21.8 13.9 12.5 93.3- 7.7 3.7---- 4.5------------
1983-07-25 14.7 19.1 9.8 8.0 84.8- 5.3 3.3---- 0.5------------
1983-07-24 15.0 19.1 8.7 6.6 78.0- 6.3 1.3---- 24.9------------
1983-07-23 13.2 16.6 9.6 9.1 94.0- 6.0 5.0---- 9.2------------
1983-07-22 12.5 17.1 9.8 8.8 79.8- 6.7 5.0---- 10.0------------
1983-07-21 11.7 16.9 8.8 7.7 83.3- 6.0 4.3---- 2.2------------
1983-07-20 16.8 23.1 12.7 12.5 85.5- 4.0 4.3---- 1.8------------
1983-07-19 20.7 28.8 11.8 10.0 72.3- 0.0 2.7---- 9.5------------
1983-07-18 20.5 26.4 11.6 8.6 65.5- 0.0 1.7---- 0.0------------
1983-07-17 20.2 25.0 15.6 14.3 78.0- 1.7 2.3---- 0.0------------
1983-07-16 19.5 27.1 10.9 9.4 70.5- 0.0 2.7---- 0.0------------
1983-07-15 19.3 24.0 16.0 14.9 77.0- 3.0 4.3---- 0.0------------
1983-07-14 17.7 23.7 15.2 14.4 93.5- 8.0 2.3---- 2.1------------
1983-07-13 17.9 23.5 15.0 14.3 89.5- 6.3 2.7---- 19.8------------
1983-07-12 16.5 21.4 15.2 14.6 94.3- 7.7 1.7---- 16.5------------
1983-07-11 18.4 23.5 15.4 15.4 90.0- 6.7 2.7---- 11.6------------
1983-07-10 20.2 26.0 14.3 11.5 73.0- 2.7 3.0---- 2.3------------
1983-07-09 20.8 26.1 15.1 12.0 73.3- 4.0 2.3---- 0.0------------
1983-07-08 18.9 24.8 9.5 6.2 66.0- 0.7 3.0---- 0.0------------
1983-07-07 18.8 24.4 11.8 7.6 62.3- 0.3 3.0---- 0.0------------
1983-07-06 19.2 24.7 10.1 7.0 73.5- 0.3 1.7---- 0.0------------
1983-07-05 19.0 24.5 11.9 10.3 72.5- 1.7 2.3---- 0.0------------
1983-07-04 19.1 24.8 11.2 10.2 69.5- 0.0 1.7---- 0.0------------
1983-07-03 18.4 22.5 14.6 12.8 81.0- 3.3 3.3---- 0.0------------
1983-07-02 18.9 23.4 15.7 14.5 88.5- 7.0 2.0---- 4.7------------
1983-07-01 20.2 25.5 14.8 10.4 79.5- 4.0 1.3---- 3.8------------
1983-06-30 16.8 22.6 8.1 5.5 68.8- 2.7 2.3---- 0.0------------
1983-06-29 15.9 19.4 12.7 12.3 68.0- 3.3 2.0---- 0.0------------
1983-06-28 18.1 22.1 16.2 15.5 86.0- 7.7 4.0---- 10.2------------
1983-06-27 20.3 26.9 12.7 9.9 73.3- 1.7 2.7---- 0.0------------
1983-06-26 19.2 23.6 16.0 15.3 75.0- 5.7 4.0---- 0.0------------
1983-06-25 19.3 27.1 11.3 10.4 68.5- 0.3 4.3---- 0.0------------
1983-06-24 16.2 23.5 6.5 2.9 63.8- 0.0 1.7---- 0.0------------
1983-06-23 13.0 19.0 4.0 0.8 62.8- 0.7 2.0---- 0.0------------
1983-06-22 11.8 19.2 6.7 3.1 61.0- 0.3 2.7---- 0.0------------
1983-06-21 18.5 23.0 12.7 9.6 72.5- 2.7 3.0---- 0.0------------
1983-06-20 18.6 22.0 14.8 13.5 85.5- 6.7 3.7---- 0.0------------
1983-06-19 18.9 23.6 14.9 9.6 82.8- 7.0 4.7---- 0.0------------
1983-06-18 13.6 15.0 10.5 6.9 96.5- 8.0 5.3---- 14.3------------
1983-06-17 13.0 14.7 9.9 9.1 82.3- 8.0 3.7---- 17.9------------
1983-06-16 13.8 17.2 12.6 7.8 90.3- 8.0 4.7---- 0.0------------
578.4 ms

 

Źródłem pochodzenia danych jest Instytut Meteorologii i Gospodarki Wodnej – Państwowy Instytut Badawczy. Dane Instytutu Meteorologii i Gospodarki Wodnej – Państwowego Instytutu Badawczego zostały przetworzone.

Dane źródłowe można odnaleźć na stronie https://dane.imgw.pl